CPX423 Details

Departure: Philip S.W. Goldson International Airport (MZBZ)
Arrival: Miami International Airport (KMIA)
Route: FRANT UG765 MAXIM EADEN CURSO5


Current Weather Information
MZBZ 232200Z 07013KT 9999 SCT023 31/25 A2985 Q1011 NOSIG RMK FU-S/SW DIST SHWR-SW
KMIA 232153Z 06014G22KT 10SM SCT030 BKN037 29/21 A3007 RMK AO2 SLP181 T02890206